Latest Coastal Weather Observations for Troughton Island

IDW60701

Issued at 1:52 pm WST Saturday 23 May 2015 (issued every 10 minutes, with the page automatically refreshed every 10 minutes)

About coastal observations | Map of coastal stations | Coastal observations for WA | Marine services | Other Formats
Station Details ID: 001007 Name: TROUGHTON ISLAND Lat: -13.75 Lon: 126.15 Height: 6.0 m
Data from the previous 72 hours. | See also: Recent months at Troughton Island
Date/Time
WST
Temp

°C
Wind Pressure Rain
since 9am
mm
Weather Cloud Vis
km
Sea
Height
m
Swell
Dir
 
Speed
knots
Gust
knots
hPa Trend Height
m
Period
s
Dir
23/01:30pm 28.8 ENE 18 21 1013.9 - 0.0 - - - - - - -
23/01:00pm 29.0 ENE 18 21 1014.3 - 0.0 - - - - - - -
23/12:30pm 28.8 E 17 21 1014.8 - 0.0 - - - - - - -
23/12:00pm 28.9 E 17 20 1015.2 - 0.0 - - - - - - -
23/11:30am 29.2 E 17 21 1015.9 - 0.0 - - - - - - -
23/11:00am 29.2 E 18 22 1016.1 - 0.0 - - - - - - -
23/10:30am 29.2 E 17 20 1016.4 - 0.0 - - - - - - -
23/10:00am 29.2 E 18 21 1016.6 - 0.0 - - - - - - -
23/09:30am 29.2 E 18 23 1016.8 - 0.0 - - - - - - -
23/09:00am 27.8 E 19 23 1016.9 - 0.0 - - - - - - -
23/08:30am 27.9 ESE 19 23 1017.1 - 0.0 - - - - - - -
23/08:00am 27.6 ESE 19 24 1017.1 - 0.0 - - - - - - -
23/07:30am 27.3 ESE 19 22 1016.9 - 0.0 - - - - - - -
23/07:00am 27.0 ESE 18 23 1016.6 - 0.0 - - - - - - -
23/06:30am 26.7 ESE 17 20 1016.5 - 0.0 - - - - - - -
23/06:00am 26.7 ESE 15 18 1016.0 - 0.0 - - - - - - -
23/05:30am 26.4 E 12 15 1015.7 - 0.0 - - - - - - -
23/05:00am 25.5 ESE 8 10 1015.8 - 0.0 - - - - - - -
23/04:30am 25.7 ESE 9 10 1015.7 - 0.0 - - - - - - -
23/04:00am 25.7 ESE 8 9 1015.5 - 0.0 - - - - - - -
23/03:30am 25.7 SE 8 9 1015.3 - 0.0 - - - - - - -
23/03:00am 26.2 ESE 9 11 1015.0 - 0.0 - - - - - - -
23/02:30am 26.7 E 8 10 1015.1 - 0.0 - - - - - - -
23/02:00am 27.0 ENE 9 10 1015.0 - 0.0 - - - - - - -
23/01:30am 27.2 E 9 11 1015.2 - 0.0 - - - - - - -
23/01:00am 27.4 E 10 11 1015.3 - 0.0 - - - - - - -
23/12:30am 26.9 ENE 9 10 1015.4 - 0.0 - - - - - - -
23/12:00am 27.0 ENE 9 11 1015.5 - 0.0 - - - - - - -
 
Date/Time
WST
Temp

°C
Wind Pressure Rain
since 9am
mm
Weather Cloud Vis
km
Sea
Height
m
Swell
Dir
 
Speed
knots
Gust
knots
hPa Trend Height
m
Period
s
Dir
22/11:30pm 27.1 E 10 11 1015.7 - 0.0 - - - - - - -
22/11:00pm 27.1 E 10 12 1015.7 - 0.0 - - - - - - -
22/10:30pm 27.1 ENE 10 12 1015.9 - 0.0 - - - - - - -
22/10:00pm 27.0 ENE 11 13 1015.9 - 0.0 - - - - - - -
22/09:30pm 26.9 ENE 12 14 1016.0 - 0.0 - - - - - - -
22/09:00pm 27.0 ENE 12 14 1016.0 - 0.0 - - - - - - -
22/08:30pm 27.0 ENE 11 13 1015.9 - 0.0 - - - - - - -
22/08:00pm 27.1 ENE 10 12 1015.8 - 0.0 - - - - - - -
22/07:30pm 27.2 ENE 11 13 1015.7 - 0.0 - - - - - - -
22/07:00pm 27.4 NE 10 13 1015.4 - 0.0 - - - - - - -
22/06:30pm 27.6 NE 11 15 1015.3 - 0.0 - - - - - - -
22/06:00pm 27.8 NE 9 11 1014.8 - 0.0 - - - - - - -
22/05:30pm 27.9 NE 9 11 1014.6 - 0.0 - - - - - - -
22/05:00pm 28.2 NNE 6 7 1014.5 - 0.0 - - - - - - -
22/04:30pm 29.0 NNE 6 7 1014.1 - 0.0 - - - - - - -
22/04:00pm 28.6 N 6 8 1013.9 - 0.0 - - - - - - -
22/03:30pm 29.4 N 8 10 1013.8 - 0.0 - - - - - - -
22/03:00pm 29.3 N 7 8 1013.7 - 0.0 - - - - - - -
22/02:30pm 29.2 N 7 9 1013.9 - 0.0 - - - - - - -
22/02:00pm 30.1 N 6 8 1014.2 - 0.0 - - - - - - -
22/01:30pm 30.5 NE 6 7 1014.3 - 0.0 - - - - - - -
22/01:00pm 30.5 ENE 4 6 1014.6 - 0.0 - - - - - - -
22/12:30pm 30.3 ENE 5 6 1015.0 - 0.0 - - - - - - -
22/12:00pm 29.8 ESE 6 7 1015.2 - 0.0 - - - - - - -
22/11:30am 29.6 E 6 7 1015.6 - 0.0 - - - - - - -
22/11:00am 29.9 E 6 7 1015.9 - 0.0 - - - - - - -
22/10:30am 29.6 E 6 7 1016.3 - 0.0 - - - - - - -
22/10:00am 28.9 E 6 7 1016.5 - 0.0 - - - - - - -
22/09:30am 28.9 ESE 6 7 1017.0 - 0.0 - - - - - - -
22/09:00am 28.9 ESE 8 10 1017.1 - 0.0 - - - - - - -
22/08:30am 28.2 ESE 9 11 1017.0 - 0.0 - - - - - - -
22/08:00am 27.4 ESE 9 12 1016.7 - 0.0 - - - - - - -
22/07:30am 26.7 SE 10 13 1016.5 - 0.0 - - - - - - -
22/07:00am 26.4 SSE 8 11 1016.3 - 0.0 - - - - - - -
22/06:30am 26.0 SSW 5 6 1015.8 - 0.0 - - - - - - -
22/06:00am 25.6 WSW 4 5 1015.4 - 0.0 - - - - - - -
22/05:30am 25.6 WSW 5 6 1015.2 - 0.0 - - - - - - -
22/05:00am 25.6 WSW 5 6 1015.0 - 0.0 - - - - - - -
22/04:30am 25.4 W 4 5 1014.8 - 0.0 - - - - - - -
22/04:00am 25.5 W 4 5 1014.7 - 0.0 - - - - - - -
22/03:30am 25.7 W 4 5 1014.5 - 0.0 - - - - - - -
22/03:00am 25.6 W 4 5 1014.3 - 0.0 - - - - - - -
22/02:30am 25.9 WSW 5 6 1014.5 - 0.0 - - - - - - -
22/02:00am 25.8 W 4 5 1014.4 - 0.0 - - - - - - -
22/01:30am 25.9 W 5 6 1014.8 - 0.0 - - - - - - -
22/01:00am 25.8 W 5 6 1015.0 - 0.0 - - - - - - -
22/12:30am 25.7 WNW 5 6 1015.4 - 0.0 - - - - - - -
22/12:00am 25.6 WNW 5 6 1015.5 - 0.0 - - - - - - -
 
Date/Time
WST
Temp

°C
Wind Pressure Rain
since 9am
mm
Weather Cloud Vis
km
Sea
Height
m
Swell
Dir
 
Speed
knots
Gust
knots
hPa Trend Height
m
Period
s
Dir
21/11:30pm 25.6 WNW 5 6 1015.9 - 0.0 - - - - - - -
21/11:00pm 25.7 WNW 4 5 1015.9 - 0.0 - - - - - - -
21/10:30pm 25.7 W 4 5 1015.9 - 0.0 - - - - - - -
21/10:00pm 25.4 W 4 5 1015.9 - 0.0 - - - - - - -
21/09:30pm 25.9 CALM 0 0 1015.7 - 0.0 - - - - - - -
21/09:00pm 26.0 CALM 0 0 1015.8 - 0.0 - - - - - - -
21/08:30pm 26.0 N 1 3 1015.9 - 0.0 - - - - - - -
21/08:00pm 26.7 N 4 5 1015.8 - 0.0 - - - - - - -
21/07:30pm 26.4 N 3 3 1015.6 - 0.0 - - - - - - -
21/07:00pm 26.5 N 3 4 1015.3 - 0.0 - - - - - - -
21/06:30pm 27.1 N 5 6 1014.8 - 0.0 - - - - - - -
21/06:00pm 27.3 N 4 6 1014.5 - 0.0 - - - - - - -
21/05:30pm 27.5 N 5 6 1014.3 - 0.0 - - - - - - -
21/05:00pm 27.8 N 7 8 1014.1 - 0.0 - - - - - - -
21/04:30pm 28.0 N 7 9 1013.7 - 0.0 - - - - - - -
21/04:00pm 28.4 N 8 10 1013.4 - 0.0 - - - - - - -
21/03:30pm 28.4 N 8 11 1013.2 - 0.0 - - - - - - -
21/03:00pm 28.7 N 9 13 1013.1 - 0.0 - - - - - - -
21/02:30pm 28.6 N 9 11 1013.2 - 0.0 - - - - - - -
21/02:00pm 28.8 N 8 10 1013.4 - 0.0 - - - - - - -
21/01:30pm 28.7 N 8 11 1013.7 - 0.0 - - - - - - -
21/01:00pm 29.1 N 7 9 1013.9 - 0.0 - - - - - - -
21/12:30pm 29.4 N 7 9 1014.1 - 0.0 - - - - - - -
21/12:00pm 29.1 NNE 6 8 1014.6 - 0.0 - - - - - - -
21/11:30am 29.4 NE 6 7 1015.4 - 0.0 - - - - - - -
21/11:00am 29.4 ENE 6 8 1015.6 - 0.0 - - - - - - -
21/10:30am 30.1 SSW 4 6 1015.8 - 0.0 - - - - - - -
21/10:00am 29.2 SSW 4 5 1016.0 - 0.0 - - - - - - -
21/09:30am 29.3 E 4 6 1016.3 - 0.0 - - - - - - -
21/09:00am 29.1 ENE 6 8 1016.4 - 0.0 - - - - - - -
21/08:30am 28.4 SSW 7 9 1016.2 - 0.0 - - - - - - -
21/08:00am 28.0 S 7 9 1016.2 - 0.0 - - - - - - -
21/07:30am 27.3 S 7 9 1016.1 - 0.0 - - - - - - -
21/07:00am 27.0 S 8 9 1015.9 - 0.0 - - - - - - -
21/06:30am 26.3 SSW 9 10 1015.6 - 0.0 - - - - - - -
21/06:00am 25.9 SSW 9 10 1015.2 - 0.0 - - - - - - -
21/05:30am 25.9 SSW 9 11 1015.1 - 0.0 - - - - - - -
21/05:00am 25.9 CALM 0 1 1014.9 - 0.0 - - - - - - -
21/04:30am 25.9 CALM 0 2 1014.8 - 0.0 - - - - - - -
21/04:00am 26.0 CALM 0 2 1014.8 - 0.0 - - - - - - -
21/03:30am 26.0 CALM 0 2 1014.7 - 0.0 - - - - - - -
21/03:00am 26.0 CALM 0 2 1014.5 - 0.0 - - - - - - -
21/02:30am 26.0 CALM 0 1 1014.7 - 0.0 - - - - - - -
21/02:00am 26.1 CALM 0 1 1014.9 - 0.0 - - - - - - -
21/01:30am 26.1 CALM 0 4 1015.3 - 0.0 - - - - - - -
21/01:00am 26.3 CALM 0 1 1015.6 - 0.0 - - - - - - -
21/12:30am 26.2 CALM 0 1 1015.8 - 0.0 - - - - - - -
21/12:00am 26.3 CALM 0 0 1016.0 - 0.0 - - - - - - -
 
Date/Time
WST
Temp

°C
Wind Pressure Rain
since 9am
mm
Weather Cloud Vis
km
Sea
Height
m
Swell
Dir
 
Speed
knots
Gust
knots
hPa Trend Height
m
Period
s
Dir
20/11:30pm 26.5 CALM 0 0 1016.2 - 0.0 - - - - - - -
20/11:00pm 26.4 CALM 0 1 1016.5 - 0.0 - - - - - - -
20/10:30pm 26.3 SSW 3 5 1016.6 - 0.0 - - - - - - -
20/10:00pm 26.2 SSW 5 6 1016.6 - 0.0 - - - - - - -
20/09:30pm 25.8 WSW 4 5 1016.5 - 0.0 - - - - - - -
20/09:00pm 26.0 NNW 3 4 1016.5 - 0.0 - - - - - - -
20/08:30pm 26.0 NNW 3 3 1016.5 - 0.0 - - - - - - -
20/08:00pm 26.9 N 4 5 1016.4 - 0.0 - - - - - - -
20/07:30pm 27.1 N 4 6 1016.3 - 0.0 - - - - - - -
20/07:00pm 27.3 N 7 9 1015.7 - 0.0 - - - - - - -
20/06:30pm 27.4 N 8 10 1015.3 - 0.0 - - - - - - -
20/06:00pm 27.5 N 7 9 1015.0 - 0.0 - - - - - - -
20/05:30pm 27.6 N 6 8 1014.6 - 0.0 - - - - - - -
20/05:00pm 28.1 N 7 9 1014.3 - 0.0 - - - - - - -
20/04:30pm 28.8 N 8 9 1014.0 - 0.0 - - - - - - -
20/04:00pm 29.0 N 8 11 1013.8 - 0.0 - - - - - - -
20/03:30pm 28.8 N 10 13 1013.4 - 0.0 - - - - - - -
20/03:00pm 28.8 N 10 11 1013.1 - 0.0 - - - - - - -
20/02:30pm 29.5 NNE 9 11 1013.2 - 0.0 - - - - - - -
20/02:00pm 30.0 NNE 8 11 1013.3 - 0.0 - - - - - - -

Other Formats:

Comma delimited format used in spreadsheet applications
http://www.bom.gov.au/fwo/IDW60701/IDW60701.94102.axf

JavaScript Object Notation format (JSON) in row-major order
http://www.bom.gov.au/fwo/IDW60701/IDW60701.94102.json